TKJ4117 LTCJ-LTAC
Flight info
| Callsign | TKJ4117 |
|---|---|
| Flight time | 1h 16m |
| Altitude | 32000 |
| Route | DYB UW73 GEM UG8 GOBIT |
| Aircraft | B738/M-SDE2E3FGHIRWXY/LB1 |
Departure
| Time | 2026-05-05 06:02 |
|---|---|
| Airport | Batman Airport (LTCJ) |
Arrival
| Time | 2026-05-05 07:18 |
|---|---|
| Airport | Esenboğa International Airport (LTAC) |
| Time | Latitude | Longitude | Altitude | Speed | Heading |
|---|---|---|---|---|---|
| 2026-05-05 05:51 | 37.91855 | 41.11382 | 1820 ft | 0 kts | 156° |
| 2026-05-05 05:56 | 37.91868 | 41.11376 | 1820 ft | 3 kts | 174° |
| 2026-05-05 05:56 | 37.91888 | 41.11380 | 1820 ft | 2 kts | 212° |
| 2026-05-05 05:56 | 37.91888 | 41.11381 | 1820 ft | 0 kts | 212° |
| 2026-05-05 05:58 | 37.91876 | 41.11370 | 1820 ft | 5 kts | 212° |
| 2026-05-05 05:59 | 37.91831 | 41.11330 | 1820 ft | 10 kts | 217° |
| 2026-05-05 05:59 | 37.91763 | 41.11270 | 1819 ft | 13 kts | 210° |
| 2026-05-05 05:59 | 37.91686 | 41.11217 | 1819 ft | 12 kts | 206° |
| 2026-05-05 05:59 | 37.91614 | 41.11164 | 1818 ft | 12 kts | 230° |
| 2026-05-05 06:00 | 37.91616 | 41.11069 | 1818 ft | 8 kts | 291° |
| 2026-05-05 06:00 | 37.91636 | 41.11005 | 1818 ft | 8 kts | 291° |
| 2026-05-05 06:00 | 37.91666 | 41.10950 | 1819 ft | 8 kts | 325° |
| 2026-05-05 06:00 | 37.91716 | 41.10946 | 1819 ft | 7 kts | 18° |
| 2026-05-05 06:01 | 37.91810 | 41.10998 | 1819 ft | 42 kts | 24° |
| 2026-05-05 06:01 | 37.92326 | 41.11308 | 1822 ft | 119 kts | 25° |
| 2026-05-05 06:01 | 37.93285 | 41.11865 | 1845 ft | 181 kts | 23° |
| 2026-05-05 06:01 | 37.94527 | 41.12576 | 2247 ft | 202 kts | 23° |
| 2026-05-05 06:02 | 37.95745 | 41.13401 | 2926 ft | 192 kts | 35° |
| 2026-05-05 06:02 | 37.96766 | 41.14500 | 3699 ft | 197 kts | 48° |
| 2026-05-05 06:02 | 37.97563 | 41.15884 | 4541 ft | 193 kts | 68° |
| 2026-05-05 06:02 | 37.97873 | 41.17528 | 5196 ft | 194 kts | 97° |
| 2026-05-05 06:03 | 37.97595 | 41.19115 | 6129 ft | 174 kts | 119° |
| 2026-05-05 06:03 | 37.96895 | 41.20352 | 6747 ft | 179 kts | 141° |
| 2026-05-05 06:03 | 37.95812 | 41.21272 | 7047 ft | 196 kts | 157° |
| 2026-05-05 06:03 | 37.94459 | 41.21768 | 7344 ft | 213 kts | 175° |
| 2026-05-05 06:04 | 37.92957 | 41.21592 | 7862 ft | 220 kts | 199° |
| 2026-05-05 06:04 | 37.91568 | 41.20695 | 8409 ft | 233 kts | 212° |
| 2026-05-05 06:04 | 37.90243 | 41.19322 | 8571 ft | 262 kts | 232° |
| 2026-05-05 06:04 | 37.89567 | 41.17117 | 9127 ft | 277 kts | 257° |
| 2026-05-05 06:05 | 37.89372 | 41.14694 | 9875 ft | 282 kts | 264° |
| 2026-05-05 06:05 | 37.89321 | 41.12184 | 10440 ft | 293 kts | 266° |
| 2026-05-05 06:05 | 37.89298 | 41.09494 | 10611 ft | 317 kts | 266° |
| 2026-05-05 06:05 | 37.89275 | 41.06611 | 10833 ft | 337 kts | 266° |
| 2026-05-05 06:06 | 37.89244 | 41.03600 | 11374 ft | 345 kts | 266° |
| 2026-05-05 06:06 | 37.89206 | 41.00556 | 12092 ft | 347 kts | 266° |
| 2026-05-05 06:06 | 37.89160 | 40.97489 | 12858 ft | 349 kts | 265° |
| 2026-05-05 06:06 | 37.89108 | 40.94410 | 13583 ft | 351 kts | 265° |
| 2026-05-05 06:07 | 37.89049 | 40.91303 | 14226 ft | 354 kts | 265° |
| 2026-05-05 06:07 | 37.88987 | 40.88172 | 14839 ft | 358 kts | 265° |
| 2026-05-05 06:07 | 37.88922 | 40.85014 | 15476 ft | 360 kts | 265° |
| 2026-05-05 06:07 | 37.88855 | 40.81834 | 16090 ft | 363 kts | 265° |
| 2026-05-05 06:08 | 37.88787 | 40.78625 | 16688 ft | 366 kts | 265° |
| 2026-05-05 06:08 | 37.88717 | 40.75393 | 17304 ft | 369 kts | 265° |
| 2026-05-05 06:08 | 37.88645 | 40.72130 | 17912 ft | 372 kts | 265° |
| 2026-05-05 06:08 | 37.88571 | 40.68843 | 18480 ft | 375 kts | 265° |
| 2026-05-05 06:09 | 37.88497 | 40.65542 | 19018 ft | 376 kts | 265° |
| 2026-05-05 06:09 | 37.88422 | 40.62227 | 19594 ft | 377 kts | 265° |
| 2026-05-05 06:09 | 37.88346 | 40.58942 | 20118 ft | 379 kts | 265° |
| 2026-05-05 06:09 | 37.88268 | 40.55598 | 20638 ft | 381 kts | 265° |
| 2026-05-05 06:10 | 37.88189 | 40.52235 | 21149 ft | 383 kts | 265° |
| 2026-05-05 06:10 | 37.88107 | 40.48853 | 21649 ft | 386 kts | 265° |
| 2026-05-05 06:10 | 37.88025 | 40.45447 | 22138 ft | 388 kts | 265° |
| 2026-05-05 06:10 | 37.87940 | 40.42018 | 22619 ft | 390 kts | 264° |
| 2026-05-05 06:11 | 37.87855 | 40.38578 | 23094 ft | 392 kts | 264° |
| 2026-05-05 06:11 | 37.87768 | 40.35106 | 23542 ft | 395 kts | 264° |
| 2026-05-05 06:11 | 37.87681 | 40.31620 | 23913 ft | 397 kts | 264° |
| 2026-05-05 06:11 | 37.87591 | 40.28123 | 24306 ft | 398 kts | 264° |
| 2026-05-05 06:12 | 37.87504 | 40.24611 | 24695 ft | 400 kts | 265° |
| 2026-05-05 06:12 | 37.87685 | 40.21069 | 25048 ft | 407 kts | 274° |
| 2026-05-05 06:12 | 37.88276 | 40.17542 | 25395 ft | 414 kts | 283° |
| 2026-05-05 06:12 | 37.89224 | 40.14127 | 25756 ft | 418 kts | 285° |
| 2026-05-05 06:13 | 37.90246 | 40.10670 | 26117 ft | 420 kts | 285° |
| 2026-05-05 06:13 | 37.91284 | 40.07197 | 26462 ft | 423 kts | 286° |
| 2026-05-05 06:13 | 37.92322 | 40.03707 | 26771 ft | 425 kts | 285° |
| 2026-05-05 06:13 | 37.93358 | 40.00190 | 27087 ft | 427 kts | 285° |
| 2026-05-05 06:14 | 37.94389 | 39.96657 | 27399 ft | 429 kts | 285° |
| 2026-05-05 06:14 | 37.95419 | 39.93103 | 27691 ft | 431 kts | 285° |
| 2026-05-05 06:14 | 37.96450 | 39.89527 | 27975 ft | 433 kts | 285° |
| 2026-05-05 06:14 | 37.97482 | 39.85940 | 28315 ft | 433 kts | 285° |
| 2026-05-05 06:15 | 37.98510 | 39.82362 | 28759 ft | 432 kts | 285° |
| 2026-05-05 06:15 | 37.99535 | 39.78792 | 29225 ft | 430 kts | 285° |
| 2026-05-05 06:15 | 38.00554 | 39.75236 | 29625 ft | 429 kts | 285° |
| 2026-05-05 06:15 | 38.01571 | 39.71677 | 29990 ft | 429 kts | 285° |
| 2026-05-05 06:16 | 38.02587 | 39.68121 | 30317 ft | 429 kts | 284° |
| 2026-05-05 06:16 | 38.03602 | 39.64562 | 30626 ft | 428 kts | 284° |
| 2026-05-05 06:16 | 38.04613 | 39.61011 | 30916 ft | 428 kts | 284° |
| 2026-05-05 06:16 | 38.05625 | 39.57452 | 31202 ft | 428 kts | 284° |
| 2026-05-05 06:17 | 38.06635 | 39.53899 | 31496 ft | 428 kts | 284° |
| 2026-05-05 06:17 | 38.07643 | 39.50345 | 31806 ft | 427 kts | 284° |
| 2026-05-05 06:17 | 38.08651 | 39.46788 | 31941 ft | 430 kts | 284° |
| 2026-05-05 06:17 | 38.09651 | 39.43251 | 31948 ft | 431 kts | 284° |
| 2026-05-05 06:18 | 38.11673 | 39.36095 | 31943 ft | 428 kts | 284° |
| 2026-05-05 06:18 | 38.13670 | 39.29008 | 31953 ft | 425 kts | 284° |
| 2026-05-05 06:19 | 38.15660 | 39.21910 | 31941 ft | 425 kts | 284° |
| 2026-05-05 06:19 | 38.17585 | 39.14805 | 31948 ft | 425 kts | 283° |
| 2026-05-05 06:20 | 38.19501 | 39.07700 | 31945 ft | 425 kts | 284° |
| 2026-05-05 06:20 | 38.21480 | 39.00613 | 31942 ft | 425 kts | 284° |
| 2026-05-05 06:21 | 38.23488 | 38.93530 | 31934 ft | 425 kts | 284° |
| 2026-05-05 06:21 | 38.25477 | 38.86453 | 31924 ft | 424 kts | 284° |
| 2026-05-05 06:22 | 38.27441 | 38.79436 | 31924 ft | 423 kts | 284° |
| 2026-05-05 06:22 | 38.29407 | 38.72402 | 31918 ft | 421 kts | 284° |
| 2026-05-05 06:23 | 38.31367 | 38.65375 | 31910 ft | 421 kts | 284° |
| 2026-05-05 06:23 | 38.33317 | 38.58368 | 31921 ft | 419 kts | 284° |
| 2026-05-05 06:24 | 38.35257 | 38.51373 | 31920 ft | 418 kts | 284° |
| 2026-05-05 06:24 | 38.37191 | 38.44382 | 31911 ft | 419 kts | 284° |
| 2026-05-05 06:25 | 38.39124 | 38.37378 | 31918 ft | 419 kts | 283° |
| 2026-05-05 06:25 | 38.41053 | 38.30368 | 31911 ft | 419 kts | 283° |
| 2026-05-05 06:26 | 38.42979 | 38.23347 | 31916 ft | 420 kts | 283° |
| 2026-05-05 06:26 | 38.44905 | 38.16312 | 31917 ft | 421 kts | 283° |
| 2026-05-05 06:27 | 38.48034 | 38.05824 | 31927 ft | 427 kts | 288° |
| 2026-05-05 06:28 | 38.50455 | 37.98863 | 31909 ft | 430 kts | 288° |
| 2026-05-05 06:28 | 38.52880 | 37.91881 | 31920 ft | 429 kts | 288° |
| 2026-05-05 06:29 | 38.55270 | 37.84895 | 31920 ft | 430 kts | 288° |
| 2026-05-05 06:29 | 38.57650 | 37.77878 | 31910 ft | 430 kts | 288° |
| 2026-05-05 06:30 | 38.60024 | 37.70852 | 31910 ft | 431 kts | 288° |
| 2026-05-05 06:30 | 38.62399 | 37.63807 | 31911 ft | 432 kts | 288° |
| 2026-05-05 06:31 | 38.64758 | 37.56797 | 31903 ft | 432 kts | 288° |
| 2026-05-05 06:31 | 38.67136 | 37.49712 | 31913 ft | 433 kts | 288° |
| 2026-05-05 06:32 | 38.69510 | 37.42620 | 31917 ft | 434 kts | 288° |
| 2026-05-05 06:32 | 38.71885 | 37.35509 | 31902 ft | 434 kts | 288° |
| 2026-05-05 06:33 | 38.74257 | 37.28391 | 31912 ft | 435 kts | 288° |
| 2026-05-05 06:33 | 38.76230 | 37.22453 | 31919 ft | 436 kts | 288° |
| 2026-05-05 06:34 | 38.78602 | 37.15304 | 31920 ft | 436 kts | 288° |
| 2026-05-05 06:34 | 38.80985 | 37.08136 | 31908 ft | 437 kts | 289° |
| 2026-05-05 06:35 | 38.83376 | 37.00958 | 31909 ft | 438 kts | 289° |
| 2026-05-05 06:35 | 38.85767 | 36.93758 | 31910 ft | 439 kts | 289° |
| 2026-05-05 06:36 | 38.88155 | 36.86544 | 31906 ft | 439 kts | 289° |
| 2026-05-05 06:36 | 38.90544 | 36.79311 | 31904 ft | 440 kts | 289° |
| 2026-05-05 06:37 | 38.92927 | 36.72075 | 31905 ft | 440 kts | 289° |
| 2026-05-05 06:37 | 38.95314 | 36.64807 | 31905 ft | 441 kts | 289° |
| 2026-05-05 06:38 | 38.97680 | 36.57585 | 31914 ft | 442 kts | 290° |
| 2026-05-05 06:38 | 39.00062 | 36.50298 | 31914 ft | 442 kts | 290° |
| 2026-05-05 06:39 | 39.02439 | 36.43003 | 31914 ft | 443 kts | 290° |
| 2026-05-05 06:39 | 39.04815 | 36.35695 | 31913 ft | 443 kts | 290° |
| 2026-05-05 06:40 | 39.07189 | 36.28374 | 31922 ft | 443 kts | 290° |
| 2026-05-05 06:40 | 39.09560 | 36.21044 | 31922 ft | 443 kts | 290° |
| 2026-05-05 06:41 | 39.11924 | 36.13712 | 31922 ft | 444 kts | 290° |
| 2026-05-05 06:41 | 39.14291 | 36.06359 | 31917 ft | 444 kts | 291° |
| 2026-05-05 06:42 | 39.16612 | 35.98993 | 31930 ft | 444 kts | 290° |
| 2026-05-05 06:42 | 39.18807 | 35.91562 | 31925 ft | 444 kts | 289° |
| 2026-05-05 06:43 | 39.20971 | 35.84165 | 31923 ft | 444 kts | 289° |
| 2026-05-05 06:43 | 39.23160 | 35.76721 | 31926 ft | 444 kts | 290° |
| 2026-05-05 06:44 | 39.25351 | 35.69278 | 31934 ft | 444 kts | 290° |
| 2026-05-05 06:44 | 39.27543 | 35.61818 | 31934 ft | 444 kts | 290° |
| 2026-05-05 06:45 | 39.29731 | 35.54347 | 31943 ft | 444 kts | 290° |
| 2026-05-05 06:45 | 39.31911 | 35.46882 | 31937 ft | 444 kts | 290° |
| 2026-05-05 06:46 | 39.34074 | 35.39454 | 31939 ft | 444 kts | 290° |
| 2026-05-05 06:46 | 39.36243 | 35.31983 | 31943 ft | 444 kts | 290° |
| 2026-05-05 06:47 | 39.38395 | 35.24553 | 31568 ft | 433 kts | 291° |
| 2026-05-05 06:47 | 39.39439 | 35.20939 | 31320 ft | 425 kts | 291° |
| 2026-05-05 06:47 | 39.40465 | 35.17390 | 31065 ft | 417 kts | 291° |
| 2026-05-05 06:47 | 39.41483 | 35.13910 | 30817 ft | 410 kts | 291° |
| 2026-05-05 06:48 | 39.42497 | 35.10477 | 30581 ft | 407 kts | 292° |
| 2026-05-05 06:48 | 39.43511 | 35.07051 | 30350 ft | 407 kts | 292° |
| 2026-05-05 06:48 | 39.44518 | 35.03640 | 30111 ft | 406 kts | 292° |
| 2026-05-05 06:48 | 39.45523 | 35.00230 | 29845 ft | 405 kts | 292° |
| 2026-05-05 06:49 | 39.46525 | 34.96823 | 29559 ft | 404 kts | 292° |
| 2026-05-05 06:49 | 39.47509 | 34.93472 | 29278 ft | 404 kts | 292° |
| 2026-05-05 06:49 | 39.48503 | 34.90076 | 28991 ft | 403 kts | 292° |
| 2026-05-05 06:49 | 39.49494 | 34.86688 | 28719 ft | 402 kts | 292° |
| 2026-05-05 06:50 | 39.50484 | 34.83299 | 28438 ft | 401 kts | 293° |
| 2026-05-05 06:50 | 39.51472 | 34.79910 | 28147 ft | 401 kts | 293° |
| 2026-05-05 06:50 | 39.52452 | 34.76545 | 27882 ft | 399 kts | 293° |
| 2026-05-05 06:50 | 39.53432 | 34.73178 | 27605 ft | 398 kts | 293° |
| 2026-05-05 06:51 | 39.54405 | 34.69826 | 27345 ft | 397 kts | 293° |
| 2026-05-05 06:51 | 39.55374 | 34.66488 | 27074 ft | 395 kts | 293° |
| 2026-05-05 06:51 | 39.56339 | 34.63156 | 26807 ft | 394 kts | 293° |
| 2026-05-05 06:51 | 39.57298 | 34.59845 | 26544 ft | 392 kts | 293° |
| 2026-05-05 06:52 | 39.58252 | 34.56542 | 26284 ft | 390 kts | 294° |
| 2026-05-05 06:52 | 39.59190 | 34.53296 | 26034 ft | 388 kts | 294° |
| 2026-05-05 06:52 | 39.60142 | 34.49995 | 25776 ft | 387 kts | 294° |
| 2026-05-05 06:52 | 39.61069 | 34.46774 | 25525 ft | 385 kts | 294° |
| 2026-05-05 06:53 | 39.62003 | 34.43528 | 25274 ft | 383 kts | 294° |
| 2026-05-05 06:53 | 39.62931 | 34.40299 | 25024 ft | 381 kts | 294° |
| 2026-05-05 06:53 | 39.63854 | 34.37080 | 24774 ft | 379 kts | 294° |
| 2026-05-05 06:53 | 39.64773 | 34.33876 | 24529 ft | 378 kts | 293° |
| 2026-05-05 06:54 | 39.65685 | 34.30687 | 24304 ft | 376 kts | 293° |
| 2026-05-05 06:54 | 39.66593 | 34.27512 | 24048 ft | 374 kts | 293° |
| 2026-05-05 06:54 | 39.67496 | 34.24350 | 23807 ft | 373 kts | 293° |
| 2026-05-05 06:54 | 39.68394 | 34.21201 | 23573 ft | 371 kts | 293° |
| 2026-05-05 06:55 | 39.69289 | 34.18061 | 23302 ft | 370 kts | 293° |
| 2026-05-05 06:55 | 39.70179 | 34.14933 | 23026 ft | 368 kts | 293° |
| 2026-05-05 06:55 | 39.71063 | 34.11821 | 22731 ft | 367 kts | 293° |
| 2026-05-05 06:55 | 39.71944 | 34.08718 | 22462 ft | 365 kts | 293° |
| 2026-05-05 06:56 | 39.72820 | 34.05628 | 22200 ft | 363 kts | 293° |
| 2026-05-05 06:56 | 39.73690 | 34.02555 | 21921 ft | 361 kts | 293° |
| 2026-05-05 06:56 | 39.74555 | 33.99497 | 21648 ft | 360 kts | 293° |
| 2026-05-05 06:56 | 39.75415 | 33.96454 | 21385 ft | 358 kts | 293° |
| 2026-05-05 06:57 | 39.76270 | 33.93423 | 21119 ft | 356 kts | 293° |
| 2026-05-05 06:57 | 39.77110 | 33.90402 | 20857 ft | 355 kts | 290° |
| 2026-05-05 06:57 | 39.77441 | 33.87262 | 20569 ft | 360 kts | 268° |
| 2026-05-05 06:57 | 39.77087 | 33.84049 | 20351 ft | 359 kts | 262° |
| 2026-05-05 06:58 | 39.76635 | 33.80866 | 20093 ft | 358 kts | 262° |
| 2026-05-05 06:58 | 39.76194 | 33.77686 | 19844 ft | 357 kts | 262° |
| 2026-05-05 06:58 | 39.75930 | 33.74497 | 19569 ft | 353 kts | 277° |
| 2026-05-05 06:58 | 39.76485 | 33.71439 | 19329 ft | 345 kts | 297° |
| 2026-05-05 06:59 | 39.77721 | 33.68801 | 19102 ft | 340 kts | 309° |
| 2026-05-05 06:59 | 39.79129 | 33.66337 | 18859 ft | 339 kts | 310° |
| 2026-05-05 06:59 | 39.80564 | 33.63900 | 18617 ft | 339 kts | 310° |
| 2026-05-05 06:59 | 39.81995 | 33.61464 | 18373 ft | 339 kts | 310° |
| 2026-05-05 07:00 | 39.83420 | 33.59019 | 18114 ft | 339 kts | 310° |
| 2026-05-05 07:00 | 39.84833 | 33.56572 | 17835 ft | 338 kts | 310° |
| 2026-05-05 07:00 | 39.86236 | 33.54128 | 17554 ft | 334 kts | 310° |
| 2026-05-05 07:00 | 39.87613 | 33.51720 | 17266 ft | 329 kts | 309° |
| 2026-05-05 07:01 | 39.88968 | 33.49344 | 16999 ft | 324 kts | 309° |
| 2026-05-05 07:01 | 39.90301 | 33.47005 | 16729 ft | 319 kts | 309° |
| 2026-05-05 07:01 | 39.91617 | 33.44695 | 16465 ft | 315 kts | 309° |
| 2026-05-05 07:01 | 39.92899 | 33.42442 | 16192 ft | 311 kts | 309° |
| 2026-05-05 07:02 | 39.94180 | 33.40190 | 15946 ft | 307 kts | 309° |
| 2026-05-05 07:02 | 39.95443 | 33.37968 | 15689 ft | 304 kts | 309° |
| 2026-05-05 07:02 | 39.96694 | 33.35764 | 15430 ft | 300 kts | 309° |
| 2026-05-05 07:02 | 39.97929 | 33.33588 | 15180 ft | 297 kts | 309° |
| 2026-05-05 07:03 | 39.99150 | 33.31434 | 14925 ft | 294 kts | 309° |
| 2026-05-05 07:03 | 40.00187 | 33.29149 | 14658 ft | 295 kts | 289° |
| 2026-05-05 07:03 | 40.00389 | 33.26506 | 14412 ft | 296 kts | 263° |
| 2026-05-05 07:03 | 39.99674 | 33.24014 | 14178 ft | 296 kts | 236° |
| 2026-05-05 07:04 | 39.98256 | 33.22095 | 13958 ft | 294 kts | 217° |
| 2026-05-05 07:04 | 39.96621 | 33.20515 | 13724 ft | 293 kts | 215° |
| 2026-05-05 07:04 | 39.94959 | 33.18978 | 13450 ft | 292 kts | 214° |
| 2026-05-05 07:04 | 39.93300 | 33.17442 | 13187 ft | 292 kts | 215° |
| 2026-05-05 07:05 | 39.91670 | 33.15916 | 12926 ft | 292 kts | 215° |
| 2026-05-05 07:05 | 39.90025 | 33.14362 | 12661 ft | 292 kts | 216° |
| 2026-05-05 07:05 | 39.88389 | 33.12808 | 12405 ft | 291 kts | 216° |
| 2026-05-05 07:05 | 39.86755 | 33.11253 | 12139 ft | 290 kts | 216° |
| 2026-05-05 07:06 | 39.85125 | 33.09702 | 11880 ft | 289 kts | 216° |
| 2026-05-05 07:06 | 39.83502 | 33.08159 | 11627 ft | 288 kts | 216° |
| 2026-05-05 07:06 | 39.81888 | 33.06626 | 11365 ft | 287 kts | 216° |
| 2026-05-05 07:06 | 39.80284 | 33.05101 | 11103 ft | 284 kts | 216° |
| 2026-05-05 07:07 | 39.78693 | 33.03591 | 10850 ft | 282 kts | 216° |
| 2026-05-05 07:07 | 39.77112 | 33.02091 | 10613 ft | 281 kts | 216° |
| 2026-05-05 07:07 | 39.75535 | 33.00596 | 10349 ft | 279 kts | 217° |
| 2026-05-05 07:07 | 39.73974 | 32.99118 | 10123 ft | 277 kts | 217° |
| 2026-05-05 07:08 | 39.72419 | 32.97645 | 9873 ft | 275 kts | 217° |
| 2026-05-05 07:08 | 39.71079 | 32.95916 | 9567 ft | 272 kts | 244° |
| 2026-05-05 07:08 | 39.70669 | 32.93623 | 9319 ft | 263 kts | 276° |
| 2026-05-05 07:08 | 39.71064 | 32.91345 | 9075 ft | 257 kts | 296° |
| 2026-05-05 07:09 | 39.71905 | 32.89290 | 8811 ft | 252 kts | 302° |
| 2026-05-05 07:09 | 39.72804 | 32.87366 | 8565 ft | 245 kts | 310° |
| 2026-05-05 07:09 | 39.74089 | 32.86042 | 8294 ft | 232 kts | 339° |
| 2026-05-05 07:09 | 39.75603 | 32.85680 | 8038 ft | 221 kts | 3° |
| 2026-05-05 07:10 | 39.77082 | 32.86106 | 7771 ft | 218 kts | 24° |
| 2026-05-05 07:10 | 39.78372 | 32.87138 | 7528 ft | 218 kts | 34° |
| 2026-05-05 07:10 | 39.79594 | 32.88303 | 7276 ft | 217 kts | 34° |
| 2026-05-05 07:10 | 39.80784 | 32.89449 | 7030 ft | 208 kts | 34° |
| 2026-05-05 07:11 | 39.81925 | 32.90544 | 6783 ft | 199 kts | 34° |
| 2026-05-05 07:11 | 39.83018 | 32.91591 | 6537 ft | 192 kts | 34° |
| 2026-05-05 07:11 | 39.84086 | 32.92609 | 6295 ft | 189 kts | 34° |
| 2026-05-05 07:11 | 39.85143 | 32.93613 | 6048 ft | 188 kts | 34° |
| 2026-05-05 07:12 | 39.86258 | 32.94430 | 6021 ft | 186 kts | 8° |
| 2026-05-05 07:12 | 39.87456 | 32.94146 | 6023 ft | 168 kts | 338° |
| 2026-05-05 07:12 | 39.88530 | 32.93607 | 6053 ft | 164 kts | 341° |
| 2026-05-05 07:12 | 39.89625 | 32.93091 | 6059 ft | 169 kts | 341° |
| 2026-05-05 07:13 | 39.90730 | 32.92578 | 6063 ft | 169 kts | 341° |
| 2026-05-05 07:13 | 39.91844 | 32.92066 | 5961 ft | 171 kts | 341° |
| 2026-05-05 07:13 | 39.92961 | 32.91557 | 5805 ft | 167 kts | 341° |
| 2026-05-05 07:13 | 39.94032 | 32.91070 | 5663 ft | 160 kts | 341° |
| 2026-05-05 07:14 | 39.95092 | 32.90589 | 5575 ft | 162 kts | 341° |
| 2026-05-05 07:14 | 39.96155 | 32.90108 | 5451 ft | 160 kts | 341° |
| 2026-05-05 07:14 | 39.97187 | 32.89641 | 5320 ft | 155 kts | 341° |
| 2026-05-05 07:14 | 39.98221 | 32.89216 | 5206 ft | 158 kts | 352° |
| 2026-05-05 07:15 | 39.99275 | 32.89547 | 5094 ft | 160 kts | 25° |
| 2026-05-05 07:15 | 40.00305 | 32.90126 | 4994 ft | 162 kts | 23° |
| 2026-05-05 07:15 | 40.01297 | 32.90819 | 4879 ft | 161 kts | 27° |
| 2026-05-05 07:15 | 40.02264 | 32.91578 | 4756 ft | 163 kts | 32° |
| 2026-05-05 07:16 | 40.03197 | 32.92429 | 4646 ft | 164 kts | 34° |
| 2026-05-05 07:16 | 40.04103 | 32.93294 | 4502 ft | 163 kts | 35° |
| 2026-05-05 07:16 | 40.05031 | 32.94182 | 4378 ft | 164 kts | 35° |
| 2026-05-05 07:16 | 40.05940 | 32.95051 | 4181 ft | 163 kts | 34° |
| 2026-05-05 07:17 | 40.06857 | 32.95909 | 3990 ft | 162 kts | 34° |
| 2026-05-05 07:17 | 40.07757 | 32.96771 | 3807 ft | 160 kts | 31° |
| 2026-05-05 07:17 | 40.08661 | 32.97615 | 3591 ft | 160 kts | 35° |
| 2026-05-05 07:17 | 40.09551 | 32.98495 | 3319 ft | 160 kts | 33° |
| 2026-05-05 07:18 | 40.10438 | 32.99350 | 3136 ft | 155 kts | 34° |
| 2026-05-05 07:18 | 40.11027 | 32.99907 | 3136 ft | 31 kts | 36° |
| 2026-05-05 07:18 | 40.11165 | 33.00045 | 3134 ft | 23 kts | 38° |
| 2026-05-05 07:18 | 40.11262 | 33.00118 | 3134 ft | 14 kts | 33° |
| 2026-05-05 07:19 | 40.11339 | 33.00196 | 3132 ft | 14 kts | 37° |
| 2026-05-05 07:19 | 40.11423 | 33.00280 | 3130 ft | 14 kts | 35° |
| 2026-05-05 07:19 | 40.11509 | 33.00266 | 3131 ft | 14 kts | 312° |
| 2026-05-05 07:19 | 40.11547 | 33.00201 | 3133 ft | 13 kts | 305° |
| 2026-05-05 07:20 | 40.11603 | 33.00109 | 3134 ft | 13 kts | 312° |
| 2026-05-05 07:20 | 40.11661 | 33.00022 | 3133 ft | 13 kts | 309° |
| 2026-05-05 07:20 | 40.11716 | 32.99933 | 3133 ft | 13 kts | 307° |
| 2026-05-05 07:20 | 40.11765 | 32.99841 | 3134 ft | 12 kts | 303° |
| 2026-05-05 07:21 | 40.11797 | 32.99742 | 3132 ft | 13 kts | 263° |
| 2026-05-05 07:21 | 40.11786 | 32.99609 | 3125 ft | 12 kts | 265° |
| 2026-05-05 07:21 | 40.11727 | 32.99562 | 3125 ft | 6 kts | 178° |
| 2026-05-05 07:21 | 40.11726 | 32.99562 | 3125 ft | 0 kts | 178° |